sensor_id;sensor_type;location;lat;lon;timestamp;temperature;humidity
9776;DHT22;4927;52.472;13.108;2023-04-24T09:14:28;16.10;99.90
9776;DHT22;4927;52.472;13.108;2023-04-24T09:15:31;17.00;99.90
9776;DHT22;4927;52.472;13.108;2023-04-24T09:16:32;17.00;99.90
9776;DHT22;4927;52.472;13.108;2023-04-24T09:17:35;16.90;99.90
9776;DHT22;4927;52.472;13.108;2023-04-24T09:18:36;16.90;99.90
9776;DHT22;4927;52.472;13.108;2023-04-24T09:19:38;16.90;99.90
9776;DHT22;4927;52.472;13.108;2023-04-24T09:21:57;16.80;99.90
9776;DHT22;4927;52.472;13.108;2023-04-24T09:22:59;16.80;99.90
9776;DHT22;4927;52.472;13.108;2023-04-24T09:24:02;16.90;99.90
9776;DHT22;4927;52.472;13.108;2023-04-24T09:25:03;16.90;99.90
9776;DHT22;4927;52.472;13.108;2023-04-24T09:26:06;17.10;99.90
9776;DHT22;4927;52.472;13.108;2023-04-24T09:27:08;17.00;99.90
9776;DHT22;4927;52.472;13.108;2023-04-24T09:28:09;17.10;99.90
9776;DHT22;4927;52.472;13.108;2023-04-24T09:29:15;17.30;99.90
9776;DHT22;4927;52.472;13.108;2023-04-24T09:30:20;17.50;99.90
9776;DHT22;4927;52.472;13.108;2023-04-24T09:31:19;17.50;99.90
9776;DHT22;4927;52.472;13.108;2023-04-24T09:32:21;17.50;99.90
9776;DHT22;4927;52.472;13.108;2023-04-24T09:33:23;17.60;99.90
9776;DHT22;4927;52.472;13.108;2023-04-24T09:34:25;17.70;99.90
9776;DHT22;4927;52.472;13.108;2023-04-24T09:35:26;17.70;99.90
9776;DHT22;4927;52.472;13.108;2023-04-24T09:36:29;17.70;99.90
9776;DHT22;4927;52.472;13.108;2023-04-24T09:37:38;17.60;99.90
9776;DHT22;4927;52.472;13.108;2023-04-24T09:38:39;17.60;99.90
9776;DHT22;4927;52.472;13.108;2023-04-24T09:39:41;17.60;99.90
9776;DHT22;4927;52.472;13.108;2023-04-24T09:40:43;17.60;99.90
9776;DHT22;4927;52.472;13.108;2023-04-24T09:41:53;17.60;99.90
9776;DHT22;4927;52.472;13.108;2023-04-24T09:42:55;17.60;99.90
9776;DHT22;4927;52.472;13.108;2023-04-24T09:43:56;17.60;99.90
9776;DHT22;4927;52.472;13.108;2023-04-24T09:44:58;17.50;99.90
9776;DHT22;4927;52.472;13.108;2023-04-24T09:46:04;17.50;99.90
9776;DHT22;4927;52.472;13.108;2023-04-24T09:47:01;17.50;99.90
9776;DHT22;4927;52.472;13.108;2023-04-24T09:48:03;17.60;99.90
9776;DHT22;4927;52.472;13.108;2023-04-24T09:49:09;17.70;99.90
9776;DHT22;4927;52.472;13.108;2023-04-24T09:50:14;17.70;99.90
9776;DHT22;4927;52.472;13.108;2023-04-24T09:51:15;17.70;99.90
9776;DHT22;4927;52.472;13.108;2023-04-24T09:52:17;17.70;99.90
9776;DHT22;4927;52.472;13.108;2023-04-24T09:53:23;17.90;99.90
9776;DHT22;4927;52.472;13.108;2023-04-24T09:54:21;17.80;99.90
9776;DHT22;4927;52.472;13.108;2023-04-24T09:55:22;17.90;99.90
9776;DHT22;4927;52.472;13.108;2023-04-24T09:56:25;18.00;99.90
9776;DHT22;4927;52.472;13.108;2023-04-24T09:57:26;18.00;99.90
9776;DHT22;4927;52.472;13.108;2023-04-24T09:58:28;18.00;99.90
9776;DHT22;4927;52.472;13.108;2023-04-24T09:59:30;18.00;99.90
9776;DHT22;4927;52.472;13.108;2023-04-24T10:00:32;18.00;99.90
9776;DHT22;4927;52.472;13.108;2023-04-24T10:01:33;18.00;99.90
9776;DHT22;4927;52.472;13.108;2023-04-24T10:02:35;18.10;99.90
9776;DHT22;4927;52.472;13.108;2023-04-24T10:03:36;18.10;99.90
9776;DHT22;4927;52.472;13.108;2023-04-24T10:04:38;18.20;99.90
9776;DHT22;4927;52.472;13.108;2023-04-24T10:05:41;18.10;99.90
9776;DHT22;4927;52.472;13.108;2023-04-24T10:06:43;18.10;99.90
9776;DHT22;4927;52.472;13.108;2023-04-24T10:07:45;18.00;99.90
9776;DHT22;4927;52.472;13.108;2023-04-24T10:08:46;18.00;99.90
9776;DHT22;4927;52.472;13.108;2023-04-24T10:09:48;18.00;99.90
9776;DHT22;4927;52.472;13.108;2023-04-24T10:10:50;18.00;99.90
9776;DHT22;4927;52.472;13.108;2023-04-24T10:11:52;18.00;99.90
9776;DHT22;4927;52.472;13.108;2023-04-24T10:12:53;18.00;99.90
9776;DHT22;4927;52.472;13.108;2023-04-24T10:13:55;18.00;99.90
9776;DHT22;4927;52.472;13.108;2023-04-24T10:14:57;18.00;99.90
9776;DHT22;4927;52.472;13.108;2023-04-24T10:16:00;17.90;99.90
9776;DHT22;4927;52.472;13.108;2023-04-24T10:17:01;17.90;99.90
9776;DHT22;4927;52.472;13.108;2023-04-24T10:18:04;17.80;99.90
9776;DHT22;4927;52.472;13.108;2023-04-24T10:19:06;17.70;99.90
9776;DHT22;4927;52.472;13.108;2023-04-24T10:20:07;17.60;99.90
9776;DHT22;4927;52.472;13.108;2023-04-24T10:21:09;17.60;99.90
9776;DHT22;4927;52.472;13.108;2023-04-24T10:22:11;17.50;99.90
9776;DHT22;4927;52.472;13.108;2023-04-24T10:23:13;17.40;99.90
9776;DHT22;4927;52.472;13.108;2023-04-24T10:24:15;17.30;99.90
9776;DHT22;4927;52.472;13.108;2023-04-24T10:25:19;17.20;99.90
9776;DHT22;4927;52.472;13.108;2023-04-24T10:26:21;17.10;99.90
9776;DHT22;4927;52.472;13.108;2023-04-24T10:27:24;17.00;99.90
9776;DHT22;4927;52.472;13.108;2023-04-24T10:28:26;16.90;99.90
9776;DHT22;4927;52.472;13.108;2023-04-24T10:29:28;16.90;99.90
9776;DHT22;4927;52.472;13.108;2023-04-24T10:30:31;16.90;99.90
9776;DHT22;4927;52.472;13.108;2023-04-24T10:31:32;16.80;99.90
9776;DHT22;4927;52.472;13.108;2023-04-24T10:32:33;16.80;99.90
9776;DHT22;4927;52.472;13.108;2023-04-24T10:33:35;16.80;99.90
9776;DHT22;4927;52.472;13.108;2023-04-24T10:34:37;16.80;99.90
9776;DHT22;4927;52.472;13.108;2023-04-24T10:35:41;16.80;99.90
9776;DHT22;4927;52.472;13.108;2023-04-24T10:36:44;16.80;99.90
9776;DHT22;4927;52.472;13.108;2023-04-24T10:38:01;16.80;99.90
9776;DHT22;4927;52.472;13.108;2023-04-24T10:39:02;16.90;99.90
9776;DHT22;4927;52.472;13.108;2023-04-24T10:40:04;16.90;99.90
9776;DHT22;4927;52.472;13.108;2023-04-24T10:41:07;16.90;99.90
9776;DHT22;4927;52.472;13.108;2023-04-24T10:44:11;16.90;99.90
9776;DHT22;4927;52.472;13.108;2023-04-24T10:45:17;17.00;99.90
9776;DHT22;4927;52.472;13.108;2023-04-24T10:46:20;17.10;99.90
9776;DHT22;4927;52.472;13.108;2023-04-24T10:47:21;17.10;99.90
9776;DHT22;4927;52.472;13.108;2023-04-24T10:48:25;17.10;99.90
9776;DHT22;4927;52.472;13.108;2023-04-24T10:49:29;17.10;99.90
9776;DHT22;4927;52.472;13.108;2023-04-24T10:50:41;17.10;99.90
9776;DHT22;4927;52.472;13.108;2023-04-24T10:52:49;16.90;99.90
9776;DHT22;4927;52.472;13.108;2023-04-24T10:53:51;16.80;99.90
9776;DHT22;4927;52.472;13.108;2023-04-24T10:54:52;16.70;99.90
9776;DHT22;4927;52.472;13.108;2023-04-24T10:56:05;16.60;99.90
9776;DHT22;4927;52.472;13.108;2023-04-24T10:57:26;16.60;99.90
9776;DHT22;4927;52.472;13.108;2023-04-24T10:58:38;16.50;99.90
9776;DHT22;4927;52.472;13.108;2023-04-24T10:59:38;16.40;99.90
9776;DHT22;4927;52.472;13.108;2023-04-24T11:00:40;16.30;99.90
9776;DHT22;4927;52.472;13.108;2023-04-24T11:01:42;16.30;99.90
9776;DHT22;4927;52.472;13.108;2023-04-24T11:02:45;16.30;99.90
9776;DHT22;4927;52.472;13.108;2023-04-24T11:03:50;16.40;99.90
9776;DHT22;4927;52.472;13.108;2023-04-24T11:04:47;16.50;99.90
9776;DHT22;4927;52.472;13.108;2023-04-24T11:06:08;16.50;99.90
9776;DHT22;4927;52.472;13.108;2023-04-24T11:07:09;16.60;99.90
9776;DHT22;4927;52.472;13.108;2023-04-24T11:08:15;16.70;99.90
9776;DHT22;4927;52.472;13.108;2023-04-24T11:09:15;16.90;99.90
9776;DHT22;4927;52.472;13.108;2023-04-24T11:10:25;17.00;99.90
9776;DHT22;4927;52.472;13.108;2023-04-24T11:11:28;17.20;99.90
9776;DHT22;4927;52.472;13.108;2023-04-24T11:12:27;17.20;99.90
9776;DHT22;4927;52.472;13.108;2023-04-24T11:15:35;17.30;99.90
9776;DHT22;4927;52.472;13.108;2023-04-24T11:16:29;17.60;99.90
9776;DHT22;4927;52.472;13.108;2023-04-24T11:17:46;17.60;99.90
9776;DHT22;4927;52.472;13.108;2023-04-24T11:18:51;17.80;99.90
9776;DHT22;4927;52.472;13.108;2023-04-24T11:19:53;17.90;99.90
9776;DHT22;4927;52.472;13.108;2023-04-24T11:20:54;18.00;99.90
9776;DHT22;4927;52.472;13.108;2023-04-24T11:22:01;18.10;99.90
9776;DHT22;4927;52.472;13.108;2023-04-24T11:23:03;18.20;99.90
9776;DHT22;4927;52.472;13.108;2023-04-24T11:25:24;18.50;99.90
9776;DHT22;4927;52.472;13.108;2023-04-24T11:26:26;18.40;99.90
9776;DHT22;4927;52.472;13.108;2023-04-24T11:27:29;18.50;99.90
9776;DHT22;4927;52.472;13.108;2023-04-24T11:28:29;18.60;99.90
9776;DHT22;4927;52.472;13.108;2023-04-24T11:29:39;18.80;99.90
9776;DHT22;4927;52.472;13.108;2023-04-24T11:30:44;18.90;99.90
9776;DHT22;4927;52.472;13.108;2023-04-24T11:31:46;18.80;99.90
9776;DHT22;4927;52.472;13.108;2023-04-24T11:32:50;18.90;99.90
9776;DHT22;4927;52.472;13.108;2023-04-24T11:33:52;19.00;99.90
9776;DHT22;4927;52.472;13.108;2023-04-24T11:34:58;19.10;99.90
9776;DHT22;4927;52.472;13.108;2023-04-24T11:36:02;19.10;99.90
9776;DHT22;4927;52.472;13.108;2023-04-24T11:37:05;19.20;99.90
9776;DHT22;4927;52.472;13.108;2023-04-24T11:38:07;19.20;99.90
9776;DHT22;4927;52.472;13.108;2023-04-24T11:39:09;19.10;99.90
9776;DHT22;4927;52.472;13.108;2023-04-24T11:40:13;19.10;99.90
9776;DHT22;4927;52.472;13.108;2023-04-24T11:41:13;19.10;99.90
9776;DHT22;4927;52.472;13.108;2023-04-24T11:42:15;19.10;99.90
9776;DHT22;4927;52.472;13.108;2023-04-24T11:43:17;19.10;99.90
9776;DHT22;4927;52.472;13.108;2023-04-24T11:44:18;19.10;99.90
9776;DHT22;4927;52.472;13.108;2023-04-24T11:45:23;19.20;99.90
9776;DHT22;4927;52.472;13.108;2023-04-24T11:46:27;19.20;99.90
9776;DHT22;4927;52.472;13.108;2023-04-24T11:47:29;19.20;99.90
9776;DHT22;4927;52.472;13.108;2023-04-24T11:48:33;19.20;99.90
9776;DHT22;4927;52.472;13.108;2023-04-24T11:49:32;19.20;99.90
9776;DHT22;4927;52.472;13.108;2023-04-24T11:50:34;19.10;99.90
9776;DHT22;4927;52.472;13.108;2023-04-24T11:51:36;19.10;99.90
9776;DHT22;4927;52.472;13.108;2023-04-24T11:52:39;19.20;99.90
9776;DHT22;4927;52.472;13.108;2023-04-24T11:53:41;19.20;99.90
9776;DHT22;4927;52.472;13.108;2023-04-24T11:54:48;19.30;99.90
9776;DHT22;4927;52.472;13.108;2023-04-24T11:55:49;19.30;99.90
9776;DHT22;4927;52.472;13.108;2023-04-24T11:56:51;19.30;99.90
9776;DHT22;4927;52.472;13.108;2023-04-24T11:57:54;19.30;99.90
9776;DHT22;4927;52.472;13.108;2023-04-24T11:58:55;19.40;99.90
9776;DHT22;4927;52.472;13.108;2023-04-24T11:59:56;19.50;99.90
9776;DHT22;4927;52.472;13.108;2023-04-24T12:00:58;19.60;99.90
9776;DHT22;4927;52.472;13.108;2023-04-24T12:02:00;19.60;99.90
9776;DHT22;4927;52.472;13.108;2023-04-24T12:03:06;19.60;99.90
9776;DHT22;4927;52.472;13.108;2023-04-24T12:04:08;19.60;99.90
9776;DHT22;4927;52.472;13.108;2023-04-24T12:05:19;19.50;99.90
9776;DHT22;4927;52.472;13.108;2023-04-24T12:06:21;19.50;99.90
9776;DHT22;4927;52.472;13.108;2023-04-24T12:07:23;19.40;99.90
9776;DHT22;4927;52.472;13.108;2023-04-24T12:08:28;19.40;99.90
9776;DHT22;4927;52.472;13.108;2023-04-24T12:09:39;19.30;99.90
9776;DHT22;4927;52.472;13.108;2023-04-24T12:10:31;19.30;99.90
9776;DHT22;4927;52.472;13.108;2023-04-24T12:11:33;19.20;99.40
9776;DHT22;4927;52.472;13.108;2023-04-24T12:12:35;19.20;99.30
9776;DHT22;4927;52.472;13.108;2023-04-24T12:13:36;19.30;99.30
9776;DHT22;4927;52.472;13.108;2023-04-24T12:14:59;19.30;99.50
9776;DHT22;4927;52.472;13.108;2023-04-24T12:16:02;19.50;99.50
9776;DHT22;4927;52.472;13.108;2023-04-24T12:17:03;19.50;99.40
9776;DHT22;4927;52.472;13.108;2023-04-24T12:18:05;19.50;99.10
9776;DHT22;4927;52.472;13.108;2023-04-24T12:19:06;19.60;98.30
9776;DHT22;4927;52.472;13.108;2023-04-24T12:20:09;19.70;98.20
9776;DHT22;4927;52.472;13.108;2023-04-24T12:21:16;19.60;98.10
9776;DHT22;4927;52.472;13.108;2023-04-24T12:22:17;19.70;98.10
9776;DHT22;4927;52.472;13.108;2023-04-24T12:24:34;19.80;98.30
9776;DHT22;4927;52.472;13.108;2023-04-24T12:25:36;19.80;98.80
9776;DHT22;4927;52.472;13.108;2023-04-24T12:26:38;19.70;99.00
9776;DHT22;4927;52.472;13.108;2023-04-24T12:27:40;19.70;98.90
9776;DHT22;4927;52.472;13.108;2023-04-24T12:28:41;19.70;99.10
9776;DHT22;4927;52.472;13.108;2023-04-24T12:29:52;19.60;99.60
9776;DHT22;4927;52.472;13.108;2023-04-24T12:30:54;19.60;99.10
9776;DHT22;4927;52.472;13.108;2023-04-24T12:31:55;19.50;99.40
9776;DHT22;4927;52.472;13.108;2023-04-24T12:32:57;19.50;99.80
9776;DHT22;4927;52.472;13.108;2023-04-24T12:33:58;19.50;99.60
9776;DHT22;4927;52.472;13.108;2023-04-24T12:35:00;19.50;99.90
9776;DHT22;4927;52.472;13.108;2023-04-24T12:36:02;19.50;99.40
9776;DHT22;4927;52.472;13.108;2023-04-24T12:37:09;19.50;99.60
9776;DHT22;4927;52.472;13.108;2023-04-24T12:38:12;19.50;99.50
9776;DHT22;4927;52.472;13.108;2023-04-24T12:39:15;19.50;99.50
9776;DHT22;4927;52.472;13.108;2023-04-24T12:40:17;19.40;99.60
9776;DHT22;4927;52.472;13.108;2023-04-24T12:41:18;19.40;99.90
9776;DHT22;4927;52.472;13.108;2023-04-24T12:42:25;19.30;99.90
9776;DHT22;4927;52.472;13.108;2023-04-24T12:43:21;19.30;99.80
9776;DHT22;4927;52.472;13.108;2023-04-24T12:44:30;19.30;99.90
9776;DHT22;4927;52.472;13.108;2023-04-24T12:45:31;19.20;99.80
9776;DHT22;4927;52.472;13.108;2023-04-24T12:46:33;19.20;99.90
9776;DHT22;4927;52.472;13.108;2023-04-24T12:47:35;19.10;99.90
9776;DHT22;4927;52.472;13.108;2023-04-24T12:48:36;19.00;99.90
9776;DHT22;4927;52.472;13.108;2023-04-24T12:49:38;19.00;99.30
9776;DHT22;4927;52.472;13.108;2023-04-24T12:50:40;18.90;99.60
9776;DHT22;4927;52.472;13.108;2023-04-24T12:51:42;18.80;98.40
9776;DHT22;4927;52.472;13.108;2023-04-24T12:52:44;18.80;98.40
9776;DHT22;4927;52.472;13.108;2023-04-24T12:53:45;18.70;98.20
9776;DHT22;4927;52.472;13.108;2023-04-24T12:54:47;18.70;98.40
9776;DHT22;4927;52.472;13.108;2023-04-24T12:55:48;18.80;98.00
9776;DHT22;4927;52.472;13.108;2023-04-24T12:56:51;18.70;97.90
9776;DHT22;4927;52.472;13.108;2023-04-24T12:57:53;18.70;97.70
9776;DHT22;4927;52.472;13.108;2023-04-24T12:58:54;18.80;97.70
9776;DHT22;4927;52.472;13.108;2023-04-24T12:59:57;18.80;97.10
9776;DHT22;4927;52.472;13.108;2023-04-24T13:00:58;18.80;97.40
9776;DHT22;4927;52.472;13.108;2023-04-24T13:01:59;18.90;97.80
9776;DHT22;4927;52.472;13.108;2023-04-24T13:03:01;18.90;98.80
9776;DHT22;4927;52.472;13.108;2023-04-24T13:04:03;18.90;99.30
9776;DHT22;4927;52.472;13.108;2023-04-24T13:05:05;18.90;99.90
9776;DHT22;4927;52.472;13.108;2023-04-24T13:06:08;18.90;99.90
9776;DHT22;4927;52.472;13.108;2023-04-24T13:07:10;18.90;99.90
9776;DHT22;4927;52.472;13.108;2023-04-24T13:08:12;19.00;99.90
9776;DHT22;4927;52.472;13.108;2023-04-24T13:09:14;19.00;99.90
9776;DHT22;4927;52.472;13.108;2023-04-24T13:10:16;19.00;99.90
9776;DHT22;4927;52.472;13.108;2023-04-24T13:11:18;19.00;99.90
9776;DHT22;4927;52.472;13.108;2023-04-24T13:12:20;19.00;99.90
9776;DHT22;4927;52.472;13.108;2023-04-24T13:13:21;19.00;99.90
9776;DHT22;4927;52.472;13.108;2023-04-24T13:14:23;19.00;99.90
9776;DHT22;4927;52.472;13.108;2023-04-24T13:15:25;19.00;99.70
9776;DHT22;4927;52.472;13.108;2023-04-24T13:16:26;19.00;99.50
9776;DHT22;4927;52.472;13.108;2023-04-24T13:17:28;19.00;99.60
9776;DHT22;4927;52.472;13.108;2023-04-24T13:18:30;18.90;99.40
9776;DHT22;4927;52.472;13.108;2023-04-24T13:19:37;18.90;99.60
9776;DHT22;4927;52.472;13.108;2023-04-24T13:20:38;18.80;99.70
9776;DHT22;4927;52.472;13.108;2023-04-24T13:21:40;18.70;99.70
9776;DHT22;4927;52.472;13.108;2023-04-24T13:22:41;18.70;99.70
9776;DHT22;4927;52.472;13.108;2023-04-24T13:23:43;18.70;99.60
9776;DHT22;4927;52.472;13.108;2023-04-24T13:24:45;18.80;99.90
9776;DHT22;4927;52.472;13.108;2023-04-24T13:25:47;18.70;99.90
9776;DHT22;4927;52.472;13.108;2023-04-24T13:26:48;18.70;99.90
9776;DHT22;4927;52.472;13.108;2023-04-24T13:27:50;18.70;99.90
9776;DHT22;4927;52.472;13.108;2023-04-24T13:28:52;18.70;99.80
9776;DHT22;4927;52.472;13.108;2023-04-24T13:29:54;18.60;99.90
9776;DHT22;4927;52.472;13.108;2023-04-24T13:30:56;18.60;99.90
9776;DHT22;4927;52.472;13.108;2023-04-24T13:31:57;18.60;99.90
9776;DHT22;4927;52.472;13.108;2023-04-24T13:32:59;18.50;99.90
9776;DHT22;4927;52.472;13.108;2023-04-24T13:34:02;18.50;99.60
9776;DHT22;4927;52.472;13.108;2023-04-24T13:35:04;18.50;99.60
9776;DHT22;4927;52.472;13.108;2023-04-24T13:36:07;18.40;99.50
9776;DHT22;4927;52.472;13.108;2023-04-24T13:37:09;18.40;99.30
9776;DHT22;4927;52.472;13.108;2023-04-24T13:38:12;18.40;99.50
9776;DHT22;4927;52.472;13.108;2023-04-24T13:39:13;18.40;99.40
9776;DHT22;4927;52.472;13.108;2023-04-24T13:40:15;18.40;99.30
9776;DHT22;4927;52.472;13.108;2023-04-24T13:41:17;18.40;99.10
9776;DHT22;4927;52.472;13.108;2023-04-24T13:42:19;18.40;99.20
9776;DHT22;4927;52.472;13.108;2023-04-24T13:43:20;18.40;99.00
9776;DHT22;4927;52.472;13.108;2023-04-24T13:44:22;18.50;98.80
9776;DHT22;4927;52.472;13.108;2023-04-24T13:45:23;18.50;98.60
9776;DHT22;4927;52.472;13.108;2023-04-24T13:46:25;18.50;98.70
9776;DHT22;4927;52.472;13.108;2023-04-24T13:47:27;18.60;99.00
9776;DHT22;4927;52.472;13.108;2023-04-24T13:48:29;18.60;98.60
9776;DHT22;4927;52.472;13.108;2023-04-24T13:49:30;18.60;98.50
9776;DHT22;4927;52.472;13.108;2023-04-24T13:50:31;18.70;96.30
9776;DHT22;4927;52.472;13.108;2023-04-24T13:51:33;18.70;96.50
9776;DHT22;4927;52.472;13.108;2023-04-24T13:52:35;18.70;95.90
9776;DHT22;4927;52.472;13.108;2023-04-24T13:53:36;18.60;95.70
9776;DHT22;4927;52.472;13.108;2023-04-24T13:54:38;18.60;96.10
9776;DHT22;4927;52.472;13.108;2023-04-24T13:55:40;18.60;95.50
9776;DHT22;4927;52.472;13.108;2023-04-24T13:56:41;18.60;95.60
9776;DHT22;4927;52.472;13.108;2023-04-24T13:57:43;18.60;95.50
9776;DHT22;4927;52.472;13.108;2023-04-24T13:58:45;18.50;94.90
9776;DHT22;4927;52.472;13.108;2023-04-24T13:59:47;18.50;94.90
9776;DHT22;4927;52.472;13.108;2023-04-24T14:00:49;18.50;94.70
9776;DHT22;4927;52.472;13.108;2023-04-24T14:01:50;18.50;95.90
9776;DHT22;4927;52.472;13.108;2023-04-24T14:02:52;18.50;95.10
9776;DHT22;4927;52.472;13.108;2023-04-24T14:03:54;18.60;94.80
9776;DHT22;4927;52.472;13.108;2023-04-24T14:04:55;18.60;93.90
9776;DHT22;4927;52.472;13.108;2023-04-24T14:05:58;18.60;93.70
9776;DHT22;4927;52.472;13.108;2023-04-24T14:06:59;18.60;93.60
9776;DHT22;4927;52.472;13.108;2023-04-24T14:08:01;18.50;94.00
9776;DHT22;4927;52.472;13.108;2023-04-24T14:09:03;18.40;93.70
9776;DHT22;4927;52.472;13.108;2023-04-24T14:10:05;18.40;93.60
9776;DHT22;4927;52.472;13.108;2023-04-24T14:11:08;18.40;94.20
9776;DHT22;4927;52.472;13.108;2023-04-24T14:12:10;18.40;94.30
9776;DHT22;4927;52.472;13.108;2023-04-24T14:13:12;18.50;94.40
9776;DHT22;4927;52.472;13.108;2023-04-24T14:14:14;18.50;94.40
9776;DHT22;4927;52.472;13.108;2023-04-24T14:15:16;18.50;93.80
9776;DHT22;4927;52.472;13.108;2023-04-24T14:16:18;18.40;93.10
9776;DHT22;4927;52.472;13.108;2023-04-24T14:17:19;18.40;93.60
9776;DHT22;4927;52.472;13.108;2023-04-24T14:18:21;18.40;93.70
9776;DHT22;4927;52.472;13.108;2023-04-24T14:19:22;18.40;94.10
9776;DHT22;4927;52.472;13.108;2023-04-24T14:20:24;18.30;94.00
9776;DHT22;4927;52.472;13.108;2023-04-24T14:21:26;18.30;93.80
9776;DHT22;4927;52.472;13.108;2023-04-24T14:22:28;18.30;93.60
9776;DHT22;4927;52.472;13.108;2023-04-24T14:23:30;18.30;94.60
9776;DHT22;4927;52.472;13.108;2023-04-24T14:24:33;18.40;94.50
9776;DHT22;4927;52.472;13.108;2023-04-24T14:25:34;18.40;94.40
9776;DHT22;4927;52.472;13.108;2023-04-24T14:26:36;18.40;94.30
9776;DHT22;4927;52.472;13.108;2023-04-24T14:27:37;18.40;94.30
9776;DHT22;4927;52.472;13.108;2023-04-24T14:28:39;18.40;93.70
9776;DHT22;4927;52.472;13.108;2023-04-24T14:29:41;18.40;93.60
9776;DHT22;4927;52.472;13.108;2023-04-24T14:30:42;18.40;93.80
9776;DHT22;4927;52.472;13.108;2023-04-24T14:31:44;18.40;93.80
9776;DHT22;4927;52.472;13.108;2023-04-24T14:32:46;18.40;93.90
9776;DHT22;4927;52.472;13.108;2023-04-24T14:33:47;18.30;93.10
9776;DHT22;4927;52.472;13.108;2023-04-24T14:34:49;18.30;93.20
9776;DHT22;4927;52.472;13.108;2023-04-24T14:35:51;18.20;93.00
9776;DHT22;4927;52.472;13.108;2023-04-24T14:36:53;18.10;93.40
9776;DHT22;4927;52.472;13.108;2023-04-24T14:37:55;18.10;93.00
9776;DHT22;4927;52.472;13.108;2023-04-24T14:38:56;18.00;93.60
9776;DHT22;4927;52.472;13.108;2023-04-24T14:39:59;17.90;93.50
9776;DHT22;4927;52.472;13.108;2023-04-24T14:41:01;17.90;93.40
9776;DHT22;4927;52.472;13.108;2023-04-24T14:42:02;17.90;93.80
9776;DHT22;4927;52.472;13.108;2023-04-24T14:43:04;17.90;93.50
9776;DHT22;4927;52.472;13.108;2023-04-24T14:44:06;17.90;93.90
9776;DHT22;4927;52.472;13.108;2023-04-24T14:45:09;18.00;94.30
9776;DHT22;4927;52.472;13.108;2023-04-24T14:46:11;18.00;94.30
9776;DHT22;4927;52.472;13.108;2023-04-24T14:47:13;18.00;94.30
9776;DHT22;4927;52.472;13.108;2023-04-24T14:48:15;18.00;94.30
9776;DHT22;4927;52.472;13.108;2023-04-24T14:49:17;18.00;94.20
9776;DHT22;4927;52.472;13.108;2023-04-24T14:50:19;18.00;94.10
9776;DHT22;4927;52.472;13.108;2023-04-24T14:51:21;18.10;93.60
9776;DHT22;4927;52.472;13.108;2023-04-24T14:52:24;18.00;93.40
9776;DHT22;4927;52.472;13.108;2023-04-24T14:53:25;18.00;93.30
9776;DHT22;4927;52.472;13.108;2023-04-24T14:54:27;18.00;93.20
9776;DHT22;4927;52.472;13.108;2023-04-24T14:55:36;18.00;93.50
9776;DHT22;4927;52.472;13.108;2023-04-24T14:56:37;17.90;93.30
9776;DHT22;4927;52.472;13.108;2023-04-24T14:57:39;17.90;92.90
9776;DHT22;4927;52.472;13.108;2023-04-24T14:58:41;17.80;93.70
9776;DHT22;4927;52.472;13.108;2023-04-24T14:59:44;17.70;93.10
9776;DHT22;4927;52.472;13.108;2023-04-24T15:00:45;17.70;93.10
9776;DHT22;4927;52.472;13.108;2023-04-24T15:01:47;17.70;93.40
9776;DHT22;4927;52.472;13.108;2023-04-24T15:02:49;17.60;93.40
9776;DHT22;4927;52.472;13.108;2023-04-24T15:03:50;17.60;93.20
9776;DHT22;4927;52.472;13.108;2023-04-24T15:04:52;17.50;93.00
9776;DHT22;4927;52.472;13.108;2023-04-24T15:05:54;17.40;93.30
9776;DHT22;4927;52.472;13.108;2023-04-24T15:06:56;17.40;93.20
9776;DHT22;4927;52.472;13.108;2023-04-24T15:07:58;17.30;93.70
9776;DHT22;4927;52.472;13.108;2023-04-24T15:09:01;17.30;93.60
9776;DHT22;4927;52.472;13.108;2023-04-24T15:10:03;17.30;93.50
9776;DHT22;4927;52.472;13.108;2023-04-24T15:11:05;17.20;93.40
9776;DHT22;4927;52.472;13.108;2023-04-24T15:12:07;17.10;93.30
9776;DHT22;4927;52.472;13.108;2023-04-24T15:13:12;17.10;93.50
9776;DHT22;4927;52.472;13.108;2023-04-24T15:14:20;17.10;93.70
9776;DHT22;4927;52.472;13.108;2023-04-24T15:15:21;17.00;93.20
9776;DHT22;4927;52.472;13.108;2023-04-24T15:16:23;16.90;93.40
9776;DHT22;4927;52.472;13.108;2023-04-24T15:17:25;16.90;93.60
9776;DHT22;4927;52.472;13.108;2023-04-24T15:18:26;16.90;93.40
9776;DHT22;4927;52.472;13.108;2023-04-24T15:19:28;16.90;93.90
9776;DHT22;4927;52.472;13.108;2023-04-24T15:20:31;16.80;94.10
9776;DHT22;4927;52.472;13.108;2023-04-24T15:21:32;16.80;94.10
9776;DHT22;4927;52.472;13.108;2023-04-24T15:22:34;16.80;94.30
9776;DHT22;4927;52.472;13.108;2023-04-24T15:23:36;16.80;94.60
9776;DHT22;4927;52.472;13.108;2023-04-24T15:24:38;16.70;94.30
9776;DHT22;4927;52.472;13.108;2023-04-24T15:25:40;16.80;94.30
9776;DHT22;4927;52.472;13.108;2023-04-24T15:26:42;16.80;94.40
9776;DHT22;4927;52.472;13.108;2023-04-24T15:27:44;16.70;94.30
9776;DHT22;4927;52.472;13.108;2023-04-24T15:28:46;16.70;94.30
9776;DHT22;4927;52.472;13.108;2023-04-24T15:29:48;16.60;93.90
9776;DHT22;4927;52.472;13.108;2023-04-24T15:30:50;16.60;93.90
9776;DHT22;4927;52.472;13.108;2023-04-24T15:31:51;16.60;94.20
9776;DHT22;4927;52.472;13.108;2023-04-24T15:32:53;16.60;94.20
9776;DHT22;4927;52.472;13.108;2023-04-24T15:33:55;16.70;94.30
9776;DHT22;4927;52.472;13.108;2023-04-24T15:34:57;16.70;94.30
9776;DHT22;4927;52.472;13.108;2023-04-24T15:35:59;16.70;94.30
9776;DHT22;4927;52.472;13.108;2023-04-24T15:37:01;16.80;94.60
9776;DHT22;4927;52.472;13.108;2023-04-24T15:38:03;16.80;94.50
9776;DHT22;4927;52.472;13.108;2023-04-24T15:39:04;16.80;94.70
9776;DHT22;4927;52.472;13.108;2023-04-24T15:40:07;16.90;94.50
9776;DHT22;4927;52.472;13.108;2023-04-24T15:41:10;16.90;94.40
9776;DHT22;4927;52.472;13.108;2023-04-24T15:42:11;16.90;94.10
9776;DHT22;4927;52.472;13.108;2023-04-24T15:43:13;16.90;94.00
9776;DHT22;4927;52.472;13.108;2023-04-24T15:44:15;17.00;94.00
9776;DHT22;4927;52.472;13.108;2023-04-24T15:45:17;17.00;93.70
9776;DHT22;4927;52.472;13.108;2023-04-24T15:46:19;17.00;93.60
9776;DHT22;4927;52.472;13.108;2023-04-24T15:47:20;17.00;93.60
9776;DHT22;4927;52.472;13.108;2023-04-24T15:48:22;17.00;93.10
9776;DHT22;4927;52.472;13.108;2023-04-24T15:49:23;17.00;93.30
9776;DHT22;4927;52.472;13.108;2023-04-24T15:50:25;17.00;93.10
9776;DHT22;4927;52.472;13.108;2023-04-24T15:51:28;17.00;93.10
9776;DHT22;4927;52.472;13.108;2023-04-24T15:52:29;17.00;93.10
9776;DHT22;4927;52.472;13.108;2023-04-24T15:53:31;16.90;93.30
9776;DHT22;4927;52.472;13.108;2023-04-24T15:54:33;16.90;93.40
9776;DHT22;4927;52.472;13.108;2023-04-24T15:55:34;16.90;93.80
9776;DHT22;4927;52.472;13.108;2023-04-24T15:56:36;16.90;93.90
9776;DHT22;4927;52.472;13.108;2023-04-24T15:57:38;16.90;93.80
9776;DHT22;4927;52.472;13.108;2023-04-24T15:58:40;16.90;93.80
9776;DHT22;4927;52.472;13.108;2023-04-24T15:59:42;17.00;94.00
9776;DHT22;4927;52.472;13.108;2023-04-24T16:00:44;16.90;93.90
9776;DHT22;4927;52.472;13.108;2023-04-24T16:01:46;17.00;94.10
9776;DHT22;4927;52.472;13.108;2023-04-24T16:02:47;17.00;94.20
9776;DHT22;4927;52.472;13.108;2023-04-24T16:03:49;17.00;94.00